Time;durP1;ratioP1;P1;durP2;ratioP2;P2;SDS_P1;SDS_P2;PMS_P1;PMS_P2;Temp;Humidity;BMP_temperature;BMP_pressure;BME280_temperature;BME280_humidity;BME280_pressure;Samples;Min_cycle;Max_cycle;Signal;HPM_P1;HPM_P2
2022/12/18 00:02:00;;;;;;;38.38;20.10;;;;;;;-2.66;44.98;103028.47;7396225;19;20386;-58
2022/12/18 00:04:26;;;;;;;39.15;19.38;;;;;;;-2.69;45.13;103034.19;7395895;19;20517;-59
2022/12/18 00:06:53;;;;;;;38.67;20.70;;;;;;;-2.80;45.01;103034.72;7395192;19;20002;-58
2022/12/18 00:09:19;;;;;;;36.35;19.83;;;;;;;-2.81;45.19;103030.44;7396313;19;20102;-58
2022/12/18 00:11:45;;;;;;;40.03;20.10;;;;;;;-2.82;45.17;103034.94;7397735;19;20002;-59
2022/12/18 00:14:12;;;;;;;39.90;20.13;;;;;;;-2.90;45.21;103031.59;7396560;19;20007;-58
2022/12/18 00:16:38;;;;;;;41.53;21.20;;;;;;;-2.82;44.95;103026.91;7394776;19;20002;-59
2022/12/18 00:19:04;;;;;;;41.47;19.85;;;;;;;-2.78;44.90;103030.84;7396874;19;20025;-58
2022/12/18 00:21:32;;;;;;;38.05;19.88;;;;;;;-2.66;44.78;103039.16;7394843;19;20676;-58
2022/12/18 00:23:58;;;;;;;37.50;19.60;;;;;;;-2.84;45.00;103042.31;7395312;19;19999;-57
2022/12/18 00:26:27;;;;;;;45.65;21.02;;;;;;;-3.02;45.25;103033.97;7395403;19;20003;-59
2022/12/18 00:28:53;;;;;;;38.20;20.67;;;;;;;-3.10;45.53;103037.59;7396532;19;20010;-59
2022/12/18 00:31:22;;;;;;;39.75;20.52;;;;;;;-3.13;45.70;103029.97;7396656;19;20002;-58
2022/12/18 00:33:48;;;;;;;36.95;19.75;;;;;;;-2.93;45.40;103023.94;7395676;19;20006;-58
2022/12/18 00:36:22;;;;;;;41.17;20.17;;;;;;;-2.91;45.05;103029.91;7395272;19;19999;-58
2022/12/18 00:38:48;;;;;;;39.08;19.90;;;;;;;-2.91;45.02;103035.25;7396211;19;20022;-58
2022/12/18 00:42:55;;;;;;;36.70;19.73;;;;;;;-2.80;44.82;103032.88;7395928;19;20331;-58
2022/12/18 00:44:02;;;;;;;38.20;19.23;;;;;;;-2.89;44.98;103027.91;7394155;19;20421;-59
2022/12/18 00:46:28;;;;;;;36.63;18.75;;;;;;;-2.93;44.86;103024.78;7394494;19;20014;-59
2022/12/18 00:48:54;;;;;;;34.55;19.00;;;;;;;-3.01;45.23;103025.75;7396164;19;19990;-59
2022/12/18 00:51:20;;;;;;;36.80;19.13;;;;;;;-2.87;45.10;103023.19;7396454;19;20087;-59
2022/12/18 00:53:45;;;;;;;37.85;18.40;;;;;;;-2.75;44.63;103013.59;7395195;19;20010;-59
2022/12/18 00:56:11;;;;;;;35.28;18.33;;;;;;;-2.84;44.68;103020.13;7395387;19;20006;-59
2022/12/18 00:58:37;;;;;;;35.75;18.65;;;;;;;-2.71;44.64;103025.56;7394946;19;20308;-59
2022/12/18 01:01:06;;;;;;;38.92;19.38;;;;;;;-2.73;44.51;103035.59;7395741;19;20018;-59
2022/12/18 01:03:32;;;;;;;35.35;18.25;;;;;;;-2.74;44.60;103035.81;7394371;19;20085;-58
2022/12/18 01:05:58;;;;;;;36.58;19.23;;;;;;;-2.86;44.76;103032.84;7394961;19;20023;-59
2022/12/18 01:08:24;;;;;;;36.63;18.35;;;;;;;-2.89;44.82;103043.94;7394253;19;20062;-58
2022/12/18 01:10:50;;;;;;;36.80;18.83;;;;;;;-2.75;44.60;103042.16;7395634;19;20003;-58
2022/12/18 01:13:16;;;;;;;33.15;17.58;;;;;;;-2.76;44.52;103046.69;7394649;19;19991;-58
2022/12/18 01:15:48;;;;;;;34.47;17.98;;;;;;;-2.83;44.77;103048.47;7394284;19;20006;-58
2022/12/18 01:18:14;;;;;;;34.47;18.48;;;;;;;-2.92;44.64;103055.00;7391088;19;20010;-59
2022/12/18 01:20:40;;;;;;;33.45;17.80;;;;;;;-2.96;44.82;103059.94;7394991;19;20022;-58
2022/12/18 01:23:06;;;;;;;35.22;17.85;;;;;;;-2.88;44.77;103061.59;7394204;19;19990;-58
2022/12/18 01:25:31;;;;;;;32.72;17.70;;;;;;;-3.03;45.06;103056.34;7392725;19;19995;-59
2022/12/18 01:27:57;;;;;;;34.70;17.05;;;;;;;-2.92;44.81;103050.47;7394328;19;20351;-59
2022/12/18 01:30:23;;;;;;;32.13;17.15;;;;;;;-2.89;44.70;103052.78;7394932;19;19994;-59
2022/12/18 01:32:49;;;;;;;32.97;16.63;;;;;;;-2.82;44.56;103055.50;7392054;19;20455;-60
2022/12/18 01:35:14;;;;;;;30.75;16.27;;;;;;;-2.82;44.44;103055.50;7394535;19;20348;-57
2022/12/18 01:37:40;;;;;;;31.98;16.70;;;;;;;-2.87;44.71;103061.41;7392997;19;20062;-59
2022/12/18 01:40:07;;;;;;;30.40;16.05;;;;;;;-2.78;44.60;103065.59;7394522;19;19999;-58
2022/12/18 01:42:33;;;;;;;29.60;15.55;;;;;;;-2.70;44.43;103061.13;7391362;19;20364;-59
2022/12/18 01:45:06;;;;;;;31.77;17.45;;;;;;;-2.71;44.18;103062.97;7391942;19;19991;-59
2022/12/18 01:47:32;;;;;;;31.83;15.93;;;;;;;-2.59;44.39;103068.59;7392419;19;20013;-58
2022/12/18 01:50:01;;;;;;;28.85;16.38;;;;;;;-2.61;44.09;103066.13;7394743;19;19999;-59
2022/12/18 01:52:32;;;;;;;30.13;15.38;;;;;;;-2.59;44.22;103065.94;7392811;19;20028;-58
2022/12/18 01:55:00;;;;;;;29.83;15.85;;;;;;;-2.59;44.17;103056.06;7392258;19;19999;-59
2022/12/18 01:57:27;;;;;;;28.40;15.02;;;;;;;-2.70;44.39;103061.94;7392245;19;20069;-59
2022/12/18 01:59:58;;;;;;;32.45;16.13;;;;;;;-2.63;44.38;103062.81;7394200;19;19999;-58
2022/12/18 02:02:26;;;;;;;30.27;15.45;;;;;;;-2.61;43.91;103059.97;7392730;19;19995;-59
2022/12/18 02:04:52;;;;;;;29.50;14.90;;;;;;;-2.77;44.43;103058.41;7390275;19;20470;-58
2022/12/18 02:07:51;;;;;;;26.25;14.13;;;;;;;-2.76;44.29;103057.41;7391549;19;20032;-58
2022/12/18 02:10:24;;;;;;;29.17;14.10;;;;;;;-2.78;44.45;103062.94;7392068;19;19995;-60
2022/12/18 02:13:12;;;;;;;27.85;13.95;;;;;;;-3.05;44.84;103061.88;7392905;19;19991;-60
2022/12/18 02:16:04;;;;;;;25.65;13.57;;;;;;;-3.10;45.29;103063.50;7390253;19;20016;-60
2022/12/18 02:18:35;;;;;;;32.13;14.93;;;;;;;-2.92;44.52;103066.53;7388832;19;20021;-59
2022/12/18 02:21:25;;;;;;;31.75;14.85;;;;;;;-3.09;44.93;103063.31;7393403;19;20002;-60
2022/12/18 02:23:54;;;;;;;24.02;13.30;;;;;;;-2.88;44.78;103057.13;7389782;19;20009;-60
2022/12/18 02:26:50;;;;;;;30.77;14.10;;;;;;;-2.75;44.40;103061.69;7395088;19;20006;-59
2022/12/18 02:29:32;;;;;;;25.58;13.60;;;;;;;-2.60;44.13;103065.09;7391280;19;20074;-59
2022/12/18 02:32:04;;;;;;;25.45;13.30;;;;;;;-2.80;44.30;103064.94;7393143;19;20038;-59
2022/12/18 02:34:32;;;;;;;32.40;13.88;;;;;;;-2.94;44.75;103068.56;7391609;19;20005;-59
2022/12/18 02:37:02;;;;;;;25.42;13.02;;;;;;;-2.96;44.78;103057.25;7389596;19;20017;-59
2022/12/18 02:39:30;;;;;;;29.83;13.13;;;;;;;-2.94;44.64;103057.06;7391660;19;19999;-60
2022/12/18 02:41:58;;;;;;;25.95;13.20;;;;;;;-2.84;44.58;103046.84;7392314;19;20100;-59
2022/12/18 02:44:23;;;;;;;24.30;12.45;;;;;;;-2.87;44.46;103045.38;7391010;19;20026;-59
2022/12/18 02:46:52;;;;;;;26.83;12.90;;;;;;;-2.79;44.41;103049.75;7390658;19;20003;-60
2022/12/18 02:49:41;;;;;;;24.55;13.40;;;;;;;-2.63;44.13;103038.75;7391826;19;19995;-59
2022/12/18 02:52:22;;;;;;;25.02;12.68;;;;;;;-2.70;44.08;103045.91;7392049;19;20029;-60
2022/12/18 02:54:56;;;;;;;24.30;12.88;;;;;;;-2.64;44.21;103042.44;7389976;19;20023;-60
2022/12/18 02:57:40;;;;;;;25.15;11.65;;;;;;;-2.63;44.02;103049.47;7390276;19;19995;-59
2022/12/18 03:00:14;;;;;;;27.52;13.00;;;;;;;-2.60;43.82;103053.56;7391887;19;20030;-60
2022/12/18 03:03:01;;;;;;;31.35;12.27;;;;;;;-3.03;44.79;103059.88;7391484;19;20062;-59
2022/12/18 03:06:10;;;;;;;23.45;11.98;;;;;;;-2.75;44.50;103063.56;7389210;19;20009;-58
2022/12/18 03:08:50;;;;;;;25.15;11.82;;;;;;;-2.70;44.24;103061.13;7387323;19;20005;-58
2022/12/18 03:12:22;;;;;;;23.52;11.50;;;;;;;-2.61;44.07;103067.97;7390822;19;20002;-59
2022/12/18 03:14:06;;;;;;;22.92;11.55;;;;;;;-2.52;43.93;103055.28;7389784;19;19995;-58
2022/12/18 03:16:34;;;;;;;25.33;12.32;;;;;;;-2.50;43.84;103047.88;7389971;19;20002;-59
2022/12/18 03:19:09;;;;;;;23.73;11.70;;;;;;;-2.71;44.09;103059.47;7390673;19;20007;-59
2022/12/18 03:21:51;;;;;;;21.83;11.10;;;;;;;-2.62;44.10;103064.47;7388848;19;20018;-59
2022/12/18 03:24:20;;;;;;;23.90;11.63;;;;;;;-2.67;44.19;103069.56;7389274;19;20002;-58
2022/12/18 03:26:49;;;;;;;25.48;11.75;;;;;;;-2.59;44.09;103060.59;7390063;19;19997;-59
2022/12/18 03:29:35;;;;;;;22.55;9.90;;;;;;;-2.50;43.94;103059.38;7390744;19;20010;-59
2022/12/18 03:32:10;;;;;;;23.00;10.68;;;;;;;-2.80;44.37;103064.13;7389021;19;20062;-59
2022/12/18 03:34:40;;;;;;;21.02;10.13;;;;;;;-2.68;44.19;103056.41;7389121;19;20546;-60
2022/12/18 03:37:12;;;;;;;25.58;10.48;;;;;;;-2.53;43.86;103062.44;7389801;19;20017;-59
2022/12/18 03:39:38;;;;;;;19.20;9.95;;;;;;;-2.82;44.67;103060.84;7389546;19;20482;-58
2022/12/18 03:42:28;;;;;;;18.42;9.38;;;;;;;-2.62;43.91;103066.31;7390424;19;20002;-58
2022/12/18 03:45:34;;;;;;;20.58;10.60;;;;;;;-2.59;43.53;103066.75;7389146;19;19994;-58
2022/12/18 03:48:08;;;;;;;21.80;10.63;;;;;;;-2.89;43.91;103068.81;7389373;19;19991;-58
2022/12/18 03:50:48;;;;;;;;;;;;;;;-3.08;43.68;103077.50;7389349;19;20087;-57
2022/12/18 03:53:28;;;;;;;21.20;10.25;;;;;;;-3.07;44.42;103079.97;7389628;19;19932;-57
2022/12/18 03:55:57;;;;;;;22.00;10.52;;;;;;;-2.90;43.74;103077.03;7389206;19;20006;-57
2022/12/18 03:58:25;;;;;;;24.08;11.30;;;;;;;-2.96;43.75;103079.44;7388488;19;20455;-58
2022/12/18 04:00:55;;;;;;;22.38;11.07;;;;;;;-3.12;43.77;103077.06;7389040;19;20485;-60
2022/12/18 04:03:23;;;;;;;21.92;10.52;;;;;;;-2.97;43.30;103060.94;7389384;19;20490;-59
2022/12/18 04:05:51;;;;;;;20.92;11.23;;;;;;;-3.44;43.81;103054.38;7387794;19;19999;-60
2022/12/18 04:08:17;;;;;;;21.15;10.85;;;;;;;-3.80;44.47;103045.38;7389863;19;20657;-59
2022/12/18 04:10:43;;;;;;;22.83;11.80;;;;;;;-3.84;44.21;103049.44;7389693;19;19998;-59
2022/12/18 04:13:09;;;;;;;28.55;12.18;;;;;;;-3.86;44.42;103038.16;7388794;19;19994;-59
2022/12/18 04:15:37;;;;;;;22.83;10.93;;;;;;;-3.84;44.23;103038.78;7389319;19;20050;-60
2022/12/18 04:18:03;;;;;;;23.08;12.02;;;;;;;-3.86;44.35;103054.16;7385525;19;19999;-60
2022/12/18 04:20:29;;;;;;;26.67;12.63;;;;;;;-3.76;44.27;103043.19;7389319;19;20018;-60
2022/12/18 04:22:55;;;;;;;22.27;10.88;;;;;;;-3.51;43.94;103040.97;7388701;19;20030;-60
2022/12/18 04:25:21;;;;;;;24.15;11.50;;;;;;;-3.51;43.98;103040.97;7387135;19;20348;-59
2022/12/18 04:27:47;;;;;;;18.50;10.52;;;;;;;-3.63;43.97;103031.78;7387273;19;20463;-59
2022/12/18 04:30:12;;;;;;;22.58;10.40;;;;;;;-3.54;43.76;103034.16;7388673;19;19998;-59
2022/12/18 04:32:38;;;;;;;23.33;10.88;;;;;;;-3.73;43.97;103042.78;7389443;19;20006;-59
2022/12/18 04:35:06;;;;;;;22.13;10.40;;;;;;;-3.46;43.53;103049.22;7396309;19;20009;-59
2022/12/18 04:37:32;;;;;;;21.60;10.35;;;;;;;-3.35;43.07;103050.53;7394201;19;20471;-59
2022/12/18 04:39:57;;;;;;;21.02;10.52;;;;;;;-3.45;43.48;103053.53;7396508;19;20007;-59
2022/12/18 04:42:23;;;;;;;20.60;10.15;;;;;;;-3.48;43.38;103045.94;7393686;19;20002;-59
2022/12/18 04:44:49;;;;;;;21.38;9.43;;;;;;;-3.62;43.48;103052.16;7392593;19;20455;-60
2022/12/18 04:47:15;;;;;;;22.40;10.38;;;;;;;-3.74;43.46;103057.97;7392440;19;20003;-59
2022/12/18 04:49:40;;;;;;;22.38;10.40;;;;;;;-3.64;43.71;103057.66;7395730;19;20040;-59
2022/12/18 04:52:09;;;;;;;21.65;9.73;;;;;;;-3.66;43.31;103053.53;7395384;19;20299;-59
2022/12/18 04:54:35;;;;;;;19.20;9.45;;;;;;;-3.98;43.72;103055.63;7394436;19;20036;-59
2022/12/18 04:57:00;;;;;;;20.73;10.15;;;;;;;-4.21;44.25;103056.63;7393716;19;20002;-59
2022/12/18 04:59:26;;;;;;;19.77;9.60;;;;;;;-4.17;43.93;103062.41;7393840;19;20002;-59
2022/12/18 05:01:52;;;;;;;19.65;10.07;;;;;;;-4.15;44.00;103061.22;7395156;19;20023;-59
2022/12/18 05:04:17;;;;;;;22.23;10.10;;;;;;;-4.12;44.15;103060.81;7393681;19;20013;-60
2022/12/18 05:06:43;;;;;;;18.98;9.40;;;;;;;-4.00;43.85;103065.69;7394372;19;20006;-60
2022/12/18 05:09:09;;;;;;;21.92;9.63;;;;;;;-3.97;43.70;103074.13;7395314;19;20003;-60
2022/12/18 05:11:35;;;;;;;19.42;9.52;;;;;;;-4.12;43.88;103070.66;7394706;19;20001;-59
2022/12/18 05:14:01;;;;;;;19.67;9.25;;;;;;;-4.17;44.12;103078.41;7394999;19;20007;-60
2022/12/18 05:16:27;;;;;;;18.73;8.73;;;;;;;-3.94;43.95;103076.44;7393835;19;19998;-60
2022/12/18 05:18:53;;;;;;;18.00;8.18;;;;;;;-3.76;43.56;103070.69;7395320;19;20015;-59
2022/12/18 05:21:18;;;;;;;22.20;9.43;;;;;;;-3.65;43.43;103080.03;7394639;19;19998;-59
2022/12/18 05:23:44;;;;;;;17.58;9.18;;;;;;;-3.58;42.92;103082.78;7393928;19;20062;-59
2022/12/18 05:26:15;;;;;;;19.25;9.70;;;;;;;-3.59;42.88;103089.16;7393742;19;20021;-60
2022/12/18 05:28:41;;;;;;;20.02;9.52;;;;;;;-3.60;42.88;103093.63;7394939;19;19994;-61
2022/12/18 05:31:06;;;;;;;18.88;8.68;;;;;;;-3.71;42.76;103102.97;7394373;19;20058;-59
2022/12/18 05:33:34;;;;;;;17.88;8.57;;;;;;;-3.54;42.74;103105.41;7394014;19;20455;-60
2022/12/18 05:36:06;;;;;;;20.00;8.93;;;;;;;-3.67;42.66;103106.09;7393264;19;19994;-60
2022/12/18 05:38:34;;;;;;;18.92;9.10;;;;;;;-4.18;43.73;103112.25;7394240;19;20059;-60
2022/12/18 05:41:00;;;;;;;20.02;8.95;;;;;;;-4.41;43.98;103117.69;7394812;19;19995;-60
2022/12/18 05:43:27;;;;;;;16.63;9.18;;;;;;;-4.35;43.89;103114.28;7392828;19;19995;-60
2022/12/18 05:45:53;;;;;;;18.30;8.93;;;;;;;-4.52;44.11;103108.28;7389192;19;20085;-60
2022/12/18 05:48:20;;;;;;;18.10;8.73;;;;;;;-4.66;44.39;103103.78;7394311;19;19998;-60
2022/12/18 05:50:47;;;;;;;20.70;8.85;;;;;;;-4.45;44.28;103092.38;7392898;19;20006;-60
2022/12/18 05:53:15;;;;;;;19.45;8.65;;;;;;;-4.27;43.84;103089.34;7392479;19;20693;-60
2022/12/18 05:55:42;;;;;;;19.13;9.20;;;;;;;-4.24;43.64;103083.66;7393937;19;19998;-60
2022/12/18 05:58:10;;;;;;;18.35;9.07;;;;;;;-4.02;43.24;103086.41;7393638;19;20331;-60
2022/12/18 06:00:40;;;;;;;18.92;9.00;;;;;;;-3.83;42.75;103095.63;7392515;19;20471;-60
2022/12/18 06:03:11;;;;;;;18.85;9.35;;;;;;;-4.03;43.01;103090.06;7392097;19;20007;-60
2022/12/18 06:05:40;;;;;;;24.85;10.18;;;;;;;-4.08;43.20;103088.78;7389892;19;20002;-60
2022/12/18 06:08:06;;;;;;;18.40;8.73;;;;;;;-4.07;42.90;103087.75;7392943;19;19994;-60
2022/12/18 06:10:32;;;;;;;18.23;8.63;;;;;;;-4.45;43.50;103090.56;7393350;19;19991;-60
2022/12/18 06:12:58;;;;;;;19.63;9.05;;;;;;;-4.60;43.86;103099.53;7391879;19;20729;-60
2022/12/18 06:15:24;;;;;;;18.73;8.70;;;;;;;-4.78;44.03;103102.53;7392888;19;19999;-60
2022/12/18 06:17:50;;;;;;;18.75;8.45;;;;;;;-4.42;43.55;103104.53;7391285;19;20021;-60
2022/12/18 06:20:16;;;;;;;18.95;8.75;;;;;;;-4.24;43.22;103113.00;7391382;19;20006;-60
2022/12/18 06:22:41;;;;;;;19.40;8.93;;;;;;;-3.99;42.71;103102.84;7391866;19;19994;-60
2022/12/18 06:25:08;;;;;;;17.90;8.90;;;;;;;-3.95;42.75;103104.16;7391558;19;20008;-60
2022/12/18 06:27:34;;;;;;;19.08;9.38;;;;;;;-4.21;42.88;103114.47;7389309;19;20070;-61
2022/12/18 06:30:00;;;;;;;19.67;9.05;;;;;;;-4.36;43.16;103106.47;7391905;19;19999;-61
2022/12/18 06:32:26;;;;;;;18.40;9.13;;;;;;;-4.51;42.99;103112.63;7391738;19;20115;-60
2022/12/18 06:34:53;;;;;;;15.73;7.82;;;;;;;-4.78;43.70;103099.88;7391738;19;20474;-60
2022/12/18 06:37:18;;;;;;;18.63;8.65;;;;;;;-4.98;44.19;103096.91;7390681;19;20414;-60
2022/12/18 06:39:44;;;;;;;19.23;8.88;;;;;;;-4.95;44.43;103100.06;7392259;19;20010;-60
2022/12/18 06:42:10;;;;;;;18.50;9.10;;;;;;;-4.85;43.98;103102.44;7390827;19;20343;-60
2022/12/18 06:44:36;;;;;;;16.80;8.38;;;;;;;-4.93;44.26;103094.50;7390371;19;20304;-60
2022/12/18 06:47:01;;;;;;;18.52;8.55;;;;;;;-4.86;44.19;103101.63;7391115;19;20459;-60
2022/12/18 06:49:27;;;;;;;20.42;9.20;;;;;;;-4.84;43.87;103109.44;7391729;19;20001;-60
2022/12/18 06:51:53;;;;;;;20.65;8.52;;;;;;;-4.80;43.18;103115.22;7389735;19;20013;-60
2022/12/18 06:54:18;;;;;;;18.25;8.75;;;;;;;-5.02;43.79;103112.41;7391371;19;19998;-60
2022/12/18 06:56:47;;;;;;;17.45;8.25;;;;;;;-4.82;43.53;103118.91;7389751;19;20387;-60
2022/12/18 06:59:14;;;;;;;18.50;8.25;;;;;;;-4.62;43.23;103123.72;7391440;19;20030;-60
2022/12/18 07:01:40;;;;;;;20.20;8.50;;;;;;;-4.78;43.47;103123.88;7391128;19;20015;-60
2022/12/18 07:04:07;;;;;;;18.15;7.88;;;;;;;-4.70;43.43;103121.13;7390627;19;20007;-60
2022/12/18 07:06:33;;;;;;;17.90;8.32;;;;;;;-4.59;43.24;103123.34;7390541;19;20206;-60
2022/12/18 07:08:58;;;;;;;17.33;7.82;;;;;;;-4.71;43.15;103128.31;7390749;19;20497;-60
2022/12/18 07:11:24;;;;;;;17.17;8.20;;;;;;;-4.87;43.45;103131.09;7390687;19;20081;-60
2022/12/18 07:13:52;;;;;;;17.20;7.80;;;;;;;-4.84;43.75;103131.56;7390646;19;20321;-58
2022/12/18 07:16:19;;;;;;;20.67;8.93;;;;;;;-4.77;43.66;103138.84;7389337;19;20006;-59
2022/12/18 07:18:45;;;;;;;15.90;7.65;;;;;;;-4.65;43.67;103134.72;7391252;19;20011;-59
2022/12/18 07:21:14;;;;;;;17.33;8.45;;;;;;;-4.46;43.31;103138.72;7390948;19;20010;-59
2022/12/18 07:23:40;;;;;;;14.38;7.38;;;;;;;-4.41;43.51;103138.19;7387724;19;20003;-59
2022/12/18 07:26:12;;;;;;;17.73;7.93;;;;;;;-4.50;43.78;103138.28;7388917;19;19998;-59
2022/12/18 07:28:39;;;;;;;17.17;7.55;;;;;;;-4.23;43.55;103138.66;7390490;19;20040;-59
2022/12/18 07:31:11;;;;;;;15.95;7.60;;;;;;;-3.96;43.14;103136.34;7390798;19;20086;-60
2022/12/18 07:33:37;;;;;;;17.50;7.88;;;;;;;-4.19;43.95;103139.13;7390219;19;19995;-59
2022/12/18 07:36:05;;;;;;;18.35;7.45;;;;;;;-3.94;43.86;103142.31;7388020;19;20466;-60
2022/12/18 07:38:33;;;;;;;16.23;7.70;;;;;;;-3.91;43.94;103136.63;7389996;19;20012;-60
2022/12/18 07:41:11;;;;;;;15.55;7.30;;;;;;;-3.96;43.99;103133.69;7391004;19;20006;-60
2022/12/18 07:43:37;;;;;;;16.00;7.43;;;;;;;-4.06;44.44;103128.63;7387651;19;20003;-60
2022/12/18 07:46:04;;;;;;;17.15;8.23;;;;;;;-3.97;44.29;103119.50;7388150;19;20070;-59
2022/12/18 07:48:30;;;;;;;17.23;7.93;;;;;;;-3.77;44.24;103122.41;7388484;19;20002;-61
2022/12/18 07:51:04;;;;;;;17.35;8.25;;;;;;;-3.58;43.73;103121.00;7391058;19;20007;-60
2022/12/18 07:53:30;;;;;;;18.63;7.57;;;;;;;-3.56;44.06;103120.81;7387775;19;20406;-60
2022/12/18 07:56:01;;;;;;;18.73;8.30;;;;;;;-3.33;43.54;103116.13;7389606;19;20005;-60
2022/12/18 07:58:26;;;;;;;18.27;7.60;;;;;;;-3.43;43.74;103120.97;7390585;19;20010;-60
2022/12/18 08:00:52;;;;;;;17.20;7.63;;;;;;;-3.39;44.02;103116.06;7390534;19;20003;-60
2022/12/18 08:03:18;;;;;;;17.50;7.20;;;;;;;-3.35;43.88;103118.16;7389851;19;20002;-60
2022/12/18 08:05:44;;;;;;;16.90;7.50;;;;;;;-3.23;43.67;103120.31;7385838;19;20006;-60
2022/12/18 08:08:10;;;;;;;15.52;8.10;;;;;;;-3.24;43.75;103116.00;7391315;19;20010;-59
2022/12/18 08:10:37;;;;;;;15.52;7.47;;;;;;;-3.28;44.03;103117.38;7394487;19;20324;-59
2022/12/18 08:13:03;;;;;;;16.98;8.10;;;;;;;-3.15;43.72;103109.50;7395036;19;20005;-60
2022/12/18 08:15:29;;;;;;;19.33;8.27;;;;;;;-3.18;43.77;103112.53;7396240;19;20069;-61
2022/12/18 08:17:57;;;;;;;14.95;7.85;;;;;;;-3.19;43.66;103110.91;7393620;19;20003;-60
2022/12/18 08:20:23;;;;;;;17.45;7.78;;;;;;;-2.99;43.71;103119.91;7394100;19;20475;-60
2022/12/18 08:22:49;;;;;;;18.75;8.10;;;;;;;-3.00;43.47;103120.09;7393802;19;20066;-61
2022/12/18 08:25:15;;;;;;;19.30;7.85;;;;;;;-3.19;43.83;103118.91;7392430;19;20028;-60
2022/12/18 08:27:40;;;;;;;18.27;8.23;;;;;;;-3.10;43.75;103123.09;7391580;19;20449;-60
2022/12/18 08:30:07;;;;;;;16.73;7.97;;;;;;;-2.97;43.65;103130.41;7392879;19;20447;-59
2022/12/18 08:32:33;;;;;;;16.30;7.70;;;;;;;-2.94;43.60;103122.03;7391703;19;20478;-60
2022/12/18 08:34:59;;;;;;;18.80;7.85;;;;;;;-2.91;43.44;103127.00;7393013;19;20001;-59
2022/12/18 08:37:25;;;;;;;15.27;7.93;;;;;;;-2.96;43.66;103129.41;7389941;19;20616;-59
2022/12/18 08:39:50;;;;;;;14.35;7.85;;;;;;;-2.81;43.45;103126.66;7394454;19;20006;-59
2022/12/18 08:45:00;;;;;;;17.50;8.25;;;;;;;-2.79;43.33;103129.97;7392950;19;20025;-60
2022/12/18 08:47:26;;;;;;;16.92;8.82;;;;;;;-2.91;43.54;103120.78;7388374;19;20525;-60
2022/12/18 08:49:52;;;;;;;18.38;8.55;;;;;;;-2.87;43.74;103117.56;7392655;19;20066;-60
2022/12/18 08:52:17;;;;;;;20.98;8.55;;;;;;;-2.82;43.50;103119.66;7392470;19;19994;-60
2022/12/18 08:54:43;;;;;;;18.13;8.25;;;;;;;-2.71;43.33;103110.25;7393837;19;19990;-60
2022/12/18 08:57:09;;;;;;;19.58;8.30;;;;;;;-2.83;43.60;103102.78;7391680;19;20397;-60
2022/12/18 08:59:35;;;;;;;19.52;8.52;;;;;;;-2.73;43.39;103099.75;7393192;19;20466;-59
2022/12/18 09:02:00;;;;;;;17.30;8.90;;;;;;;-2.76;43.46;103102.84;7391016;19;19998;-60
2022/12/18 09:04:26;;;;;;;17.52;8.40;;;;;;;-2.75;43.82;103101.81;7391644;19;20018;-59
2022/12/18 09:06:55;;;;;;;19.65;8.82;;;;;;;-2.54;43.48;103100.13;7392214;19;20333;-60
2022/12/18 09:09:21;;;;;;;20.30;8.77;;;;;;;-2.48;43.32;103094.81;7391240;19;20018;-60
2022/12/18 09:11:46;;;;;;;16.83;8.48;;;;;;;-2.44;43.22;103103.25;7393255;19;20377;-60
2022/12/18 09:14:12;;;;;;;20.48;8.65;;;;;;;-2.29;43.04;103109.31;7391615;19;20499;-61
2022/12/18 09:16:51;;;;;;;17.33;8.57;;;;;;;-2.28;43.05;103116.31;6906324;19;9761019;-63
2022/12/18 09:19:17;;;;;;;20.55;9.07;;;;;;;-2.18;42.93;103109.78;7394534;19;20219;-61
2022/12/18 09:21:42;;;;;;;17.65;8.00;;;;;;;-2.28;42.98;103116.31;7392931;19;20482;-58
2022/12/18 09:24:12;;;;;;;19.60;9.40;;;;;;;-2.35;43.13;103120.78;7391393;19;20466;-58
2022/12/18 09:26:38;;;;;;;17.65;8.20;;;;;;;-2.42;43.45;103130.63;7394994;19;20335;-58
2022/12/18 09:29:04;;;;;;;18.80;8.60;;;;;;;-2.15;43.08;103128.09;7395324;19;20006;-58
2022/12/18 09:31:30;;;;;;;17.98;8.52;;;;;;;-2.09;42.88;103140.72;7392789;19;20041;-58
2022/12/18 09:33:56;;;;;;;16.63;7.95;;;;;;;-1.99;42.83;103141.16;7393980;19;20496;-58
2022/12/18 09:36:22;;;;;;;16.88;8.18;;;;;;;-2.01;43.06;103143.22;7392349;19;20006;-59
2022/12/18 09:38:48;;;;;;;18.10;8.70;;;;;;;-1.86;42.78;103143.91;7392881;19;20526;-58
2022/12/18 09:41:23;;;;;;;18.15;7.85;;;;;;;-1.87;42.91;103128.84;7392130;19;20002;-58
2022/12/18 09:43:57;;;;;;;18.10;8.30;;;;;;;-1.75;42.62;103136.31;7393534;19;20006;-59
2022/12/18 09:46:49;;;;;;;20.10;8.27;;;;;;;-1.95;42.90;103134.38;7392960;19;20470;-59
2022/12/18 09:49:19;;;;;;;17.77;8.10;;;;;;;-1.95;43.16;103133.56;7394076;19;20003;-58
2022/12/18 09:51:52;;;;;;;19.10;8.88;;;;;;;-1.81;42.95;103146.00;7390626;19;20006;-59
2022/12/18 09:54:35;;;;;;;16.50;9.15;;;;;;;-1.85;42.94;103144.72;7391730;19;20019;-57
2022/12/18 09:57:01;;;;;;;18.90;9.13;;;;;;;-1.73;42.89;103151.16;7393823;19;20006;-60
2022/12/18 09:59:34;;;;;;;18.80;8.70;;;;;;;-1.87;43.19;103150.28;7392592;19;19998;-58
2022/12/18 10:02:19;;;;;;;17.75;9.70;;;;;;;-1.72;42.84;103158.16;7389838;19;20002;-58
2022/12/18 10:04:55;;;;;;;18.15;8.90;;;;;;;-1.78;42.97;103137.53;7392580;19;20006;-57
2022/12/18 10:07:34;;;;;;;19.33;8.80;;;;;;;-1.70;42.97;103133.88;7392234;19;20009;-53
2022/12/18 10:10:13;;;;;;;19.73;8.93;;;;;;;-1.54;42.68;103144.22;7391502;19;20018;-59
2022/12/18 10:12:47;;;;;;;15.68;8.57;;;;;;;-1.58;42.61;103142.97;7392441;19;20797;-58
2022/12/18 10:15:31;;;;;;;;;;;;;;;-1.65;42.83;103150.16;7394866;19;20002;-59
2022/12/18 10:18:34;;;;;;;14.90;8.20;;;;;;;-1.73;43.10;103139.63;7392232;19;20335;-59
2022/12/18 10:21:11;;;;;;;16.55;8.00;;;;;;;-1.65;43.25;103136.75;7392744;19;20023;-59
2022/12/18 10:23:45;;;;;;;18.98;8.75;;;;;;;-1.39;42.75;103132.50;7392378;19;19999;-59
2022/12/18 10:26:14;;;;;;;20.50;9.40;;;;;;;-1.47;42.80;103128.97;7391960;19;20497;-58
2022/12/18 10:28:41;;;;;;;17.65;8.93;;;;;;;-1.49;42.88;103124.88;7392117;19;20010;-59
2022/12/18 10:31:14;;;;;;;16.10;8.70;;;;;;;-1.30;42.93;103112.53;7390728;19;20078;-59
2022/12/18 10:33:41;;;;;;;18.05;9.07;;;;;;;-1.33;42.81;103110.25;7390101;19;20062;-59
2022/12/18 10:36:07;;;;;;;19.27;9.95;;;;;;;-1.41;42.89;103110.44;7393139;19;19995;-59
2022/12/18 10:38:33;;;;;;;20.88;9.40;;;;;;;-1.36;42.71;103108.81;7391473;19;19995;-59
2022/12/18 10:41:25;;;;;;;20.10;9.43;;;;;;;-1.38;42.80;103102.00;7390984;19;20002;-59
2022/12/18 10:44:23;;;;;;;21.33;9.50;;;;;;;-1.47;42.72;103104.06;7392479;19;20485;-59
2022/12/18 10:46:53;;;;;;;18.23;8.80;;;;;;;-1.36;43.01;103102.63;7392609;19;19998;-59
2022/12/18 10:49:29;;;;;;;16.38;9.27;;;;;;;-1.39;42.90;103108.38;7392531;19;20022;-59
2022/12/18 10:52:16;;;;;;;18.83;9.50;;;;;;;-1.36;42.68;103103.47;7391638;19;20025;-59
2022/12/18 10:54:49;;;;;;;16.85;9.32;;;;;;;-1.35;42.87;103104.28;7392361;19;19998;-59
2022/12/18 10:57:36;;;;;;;19.15;9.27;;;;;;;-1.22;42.57;103098.13;7392214;19;20481;-60
2022/12/18 11:00:23;;;;;;;18.17;9.02;;;;;;;-1.16;42.40;103097.28;7391636;19;20003;-59
2022/12/18 11:02:49;;;;;;;19.27;9.15;;;;;;;-1.11;42.30;103089.44;7392074;19;20003;-60
2022/12/18 11:05:33;;;;;;;19.10;8.98;;;;;;;-1.05;42.49;103072.56;7390998;19;20004;-59
2022/12/18 11:08:00;;;;;;;21.17;9.57;;;;;;;-1.14;42.62;103069.25;7390717;19;20072;-59
2022/12/18 11:10:31;;;;;;;18.67;9.55;;;;;;;-1.18;42.82;103061.84;7389112;19;20011;-59
2022/12/18 11:13:21;;;;;;;19.00;9.43;;;;;;;-1.25;42.98;103071.72;7390271;19;19998;-59
2022/12/18 11:15:48;;;;;;;16.83;9.43;;;;;;;-1.23;43.12;103059.75;7389919;19;19998;-60
2022/12/18 11:18:17;;;;;;;20.70;9.43;;;;;;;-1.08;42.96;103045.34;7390414;19;20446;-59
2022/12/18 11:20:50;;;;;;;16.63;8.65;;;;;;;-1.31;43.45;103046.56;7390313;19;20636;-59
2022/12/18 11:23:16;;;;;;;18.53;8.53;;;;;;;-1.17;43.28;103042.88;7390112;19;20013;-60
2022/12/18 11:25:51;;;;;;;19.02;8.57;;;;;;;-1.03;43.06;103054.41;7389222;19;20007;-60
2022/12/18 11:28:49;;;;;;;18.08;8.07;;;;;;;-1.21;43.45;103046.16;7389594;19;20029;-59
2022/12/18 11:31:27;;;;;;;19.48;8.68;;;;;;;-0.94;42.99;103041.63;7388940;19;20011;-59